createdAt,value
2018-01-13T00:00:22.699Z,98.06
2018-01-13T00:01:23.128Z,98.34
2018-01-13T00:02:23.538Z,98.44
2018-01-13T00:03:23.974Z,98.25
2018-01-13T00:04:24.399Z,98.15
2018-01-13T00:05:24.807Z,98.44
2018-01-13T00:06:25.215Z,98.44
2018-01-13T00:07:25.637Z,98.06
2018-01-13T00:08:26.056Z,97.68
2018-01-13T00:09:26.470Z,97.87
2018-01-13T00:10:26.892Z,98.63
2018-01-13T00:11:27.303Z,98.44
2018-01-13T00:12:27.728Z,98.25
2018-01-13T00:13:28.149Z,98.25
2018-01-13T00:14:28.562Z,98.06
2018-01-13T00:15:28.978Z,98.34
2018-01-13T00:16:29.401Z,98.15
2018-01-13T00:17:29.818Z,98.25
2018-01-13T00:18:30.233Z,98.15
2018-01-13T00:19:30.654Z,97.77
2018-01-13T00:20:31.076Z,98.06
2018-01-13T00:21:31.493Z,98.44
2018-01-13T00:22:31.911Z,98.82
2018-01-13T00:23:32.327Z,98.53
2018-01-13T00:24:32.753Z,98.25
2018-01-13T00:25:33.166Z,98.44
2018-01-13T00:26:33.589Z,98.63
2018-01-13T00:27:34.012Z,98.06
2018-01-13T00:28:34.436Z,97.87
2018-01-13T00:29:34.837Z,97.96
2018-01-13T00:30:35.254Z,97.77
2018-01-13T00:31:35.680Z,97.87
2018-01-13T00:32:36.104Z,97.87
2018-01-13T00:33:36.512Z,97.77
2018-01-13T00:34:36.930Z,97.96
2018-01-13T00:35:37.351Z,98.25
2018-01-13T00:36:37.773Z,98.06
2018-01-13T00:37:38.190Z,99.01
2018-01-13T00:38:38.607Z,98.72
2018-01-13T00:39:39.024Z,98.91
2018-01-13T00:40:39.445Z,98.53
2018-01-13T00:41:39.858Z,98.82
2018-01-13T00:42:40.281Z,98.82
2018-01-13T00:43:40.698Z,98.15
2018-01-13T00:44:41.120Z,99.38
2018-01-13T00:45:41.538Z,98.63
2018-01-13T00:46:41.954Z,98.72
2018-01-13T00:47:42.370Z,99.29
2018-01-13T00:48:42.793Z,99.01
2018-01-13T00:49:43.209Z,99.19
2018-01-13T00:50:43.624Z,98.91
2018-01-13T00:51:44.045Z,99.29
2018-01-13T00:52:44.461Z,99.29
2018-01-13T00:53:44.895Z,99.29
2018-01-13T00:54:45.335Z,99.95
2018-01-13T00:55:45.733Z,99.85
2018-01-13T00:56:46.148Z,99.99
2018-01-13T00:57:46.561Z,99.99
2018-01-13T00:58:46.981Z,99.48
2018-01-13T00:59:47.399Z,99.99
2018-01-13T01:00:47.832Z,99.95
2018-01-13T01:01:48.233Z,99.99
2018-01-13T01:02:48.672Z,99.95
2018-01-13T01:03:49.068Z,99.99
2018-01-13T01:04:49.484Z,99.76
2018-01-13T01:05:49.904Z,99.99
2018-01-13T01:06:50.325Z,99.99
2018-01-13T01:07:50.741Z,99.99
2018-01-13T01:08:51.160Z,99.99
2018-01-13T01:09:51.582Z,99.99
2018-01-13T01:10:52.002Z,99.99
2018-01-13T01:11:52.474Z,99.99
2018-01-13T01:12:52.834Z,99.99
2018-01-13T01:13:53.259Z,99.99
2018-01-13T01:14:53.675Z,99.99
2018-01-13T01:15:54.091Z,99.99
2018-01-13T01:16:54.506Z,99.99
2018-01-13T01:17:54.937Z,99.99
2018-01-13T01:18:55.355Z,99.99
2018-01-13T01:19:55.765Z,99.99
2018-01-13T01:20:56.186Z,99.99
2018-01-13T01:21:56.606Z,99.99
2018-01-13T01:22:57.020Z,99.99
2018-01-13T01:23:57.449Z,99.99
2018-01-13T01:24:57.857Z,99.99
2018-01-13T01:25:58.276Z,99.99
2018-01-13T01:26:58.693Z,99.99
2018-01-13T01:27:59.118Z,99.99
2018-01-13T01:28:59.534Z,99.99
2018-01-13T01:29:59.950Z,99.99
2018-01-13T01:31:00.370Z,99.99
2018-01-13T01:32:00.786Z,99.99
2018-01-13T01:33:01.205Z,99.99
2018-01-13T01:34:01.618Z,99.99
2018-01-13T01:35:02.042Z,99.99
2018-01-13T01:36:02.459Z,99.99
2018-01-13T01:37:02.886Z,99.99
2018-01-13T01:38:03.307Z,99.99
2018-01-13T01:39:03.722Z,99.99
2018-01-13T01:40:04.157Z,99.99
2018-01-13T01:41:04.554Z,99.99
2018-01-13T01:42:04.977Z,99.99
2018-01-13T01:43:05.396Z,99.99
2018-01-13T01:44:05.810Z,99.99
2018-01-13T01:45:06.227Z,99.99
2018-01-13T01:46:06.644Z,99.99
2018-01-13T01:47:07.070Z,99.99
2018-01-13T01:48:07.487Z,99.99
2018-01-13T01:49:07.922Z,99.99
2018-01-13T01:50:08.317Z,99.99
2018-01-13T01:51:08.742Z,99.99
2018-01-13T01:52:09.158Z,99.99
2018-01-13T01:53:09.584Z,99.99
2018-01-13T01:54:09.992Z,99.99
2018-01-13T01:55:10.412Z,99.99
2018-01-13T01:56:10.831Z,99.99
2018-01-13T01:57:11.249Z,99.99
2018-01-13T01:58:11.665Z,99.99
2018-01-13T01:59:12.083Z,99.99
2018-01-13T02:00:12.504Z,99.99
2018-01-13T02:01:12.920Z,99.99
2018-01-13T02:02:13.346Z,99.99
2018-01-13T02:03:13.763Z,99.99
2018-01-13T02:04:14.179Z,99.99
2018-01-13T02:05:14.596Z,99.99
2018-01-13T02:06:15.019Z,99.99
2018-01-13T02:07:15.430Z,99.99
2018-01-13T02:08:15.856Z,99.99
2018-01-13T02:09:16.271Z,99.99
2018-01-13T02:10:16.690Z,99.99
2018-01-13T02:11:17.104Z,99.99
2018-01-13T02:12:17.528Z,99.99
2018-01-13T02:13:17.944Z,99.99
2018-01-13T02:14:18.360Z,99.99
2018-01-13T02:15:18.778Z,99.99
2018-01-13T02:16:19.199Z,99.99
2018-01-13T02:17:19.615Z,99.99
2018-01-13T02:18:20.037Z,99.99
2018-01-13T02:19:20.453Z,99.99
2018-01-13T02:20:20.870Z,99.99
2018-01-13T02:21:21.292Z,99.99
2018-01-13T02:22:21.708Z,99.99
2018-01-13T02:23:22.125Z,99.99
2018-01-13T02:24:22.550Z,99.99
2018-01-13T02:25:22.966Z,99.99
2018-01-13T02:26:23.384Z,99.99
2018-01-13T02:27:23.807Z,99.99
2018-01-13T02:28:24.216Z,99.99
2018-01-13T02:29:24.639Z,99.99
2018-01-13T02:30:25.057Z,99.99
2018-01-13T02:31:25.474Z,99.99
2018-01-13T02:32:25.892Z,99.99
2018-01-13T02:33:26.309Z,99.99
2018-01-13T02:34:26.732Z,99.99
2018-01-13T02:35:27.148Z,99.99
2018-01-13T02:36:27.566Z,99.99
2018-01-13T02:37:27.986Z,99.99
2018-01-13T02:38:28.410Z,99.99
2018-01-13T02:39:28.823Z,99.99
2018-01-13T02:40:29.247Z,99.99
2018-01-13T02:41:29.658Z,99.99
2018-01-13T02:42:30.082Z,99.99
2018-01-13T02:43:30.499Z,99.99
2018-01-13T02:44:30.916Z,99.99
2018-01-13T02:45:31.330Z,99.99
2018-01-13T02:46:31.749Z,99.99
2018-01-13T02:47:32.175Z,99.99
2018-01-13T02:48:32.595Z,99.99
2018-01-13T02:49:33.004Z,99.99
2018-01-13T02:50:33.427Z,99.99
2018-01-13T02:51:33.846Z,99.99
2018-01-13T02:52:34.261Z,99.99
2018-01-13T02:53:34.685Z,99.99
2018-01-13T02:54:35.105Z,99.99
2018-01-13T02:55:35.523Z,99.99
2018-01-13T02:56:35.939Z,99.99
2018-01-13T02:57:36.355Z,99.99
2018-01-13T02:58:36.774Z,99.99
2018-01-13T02:59:37.198Z,99.99
2018-01-13T03:00:37.609Z,99.99
2018-01-13T03:01:38.024Z,99.99
2018-01-13T03:02:38.448Z,99.99
2018-01-13T03:03:38.864Z,99.99
2018-01-13T03:04:39.279Z,99.99
2018-01-13T03:05:39.697Z,99.99
2018-01-13T03:06:40.118Z,99.99
2018-01-13T03:07:40.539Z,99.99
2018-01-13T03:08:40.959Z,99.99
2018-01-13T03:09:41.371Z,99.99
2018-01-13T03:10:41.792Z,99.99
2018-01-13T03:11:42.209Z,99.99
2018-01-13T03:12:42.632Z,99.99
2018-01-13T03:13:43.049Z,99.99
2018-01-13T03:14:43.475Z,99.99
2018-01-13T03:15:43.888Z,99.99
2018-01-13T03:16:44.306Z,99.99
2018-01-13T03:17:44.716Z,99.99
2018-01-13T03:18:45.140Z,99.99
2018-01-13T03:19:45.556Z,99.99
2018-01-13T03:20:45.974Z,99.99
2018-01-13T03:21:46.395Z,99.99
2018-01-13T03:22:46.809Z,99.99
2018-01-13T03:23:47.228Z,99.99
2018-01-13T03:24:47.647Z,99.99
2018-01-13T03:25:48.067Z,99.99
2018-01-13T03:26:48.484Z,99.99
2018-01-13T03:27:48.905Z,99.99
2018-01-13T03:28:49.318Z,99.99
2018-01-13T03:29:49.736Z,99.99
2018-01-13T03:30:50.156Z,99.99
2018-01-13T03:31:50.582Z,99.99
2018-01-13T03:32:51.000Z,99.99
2018-01-13T03:33:51.418Z,99.99
2018-01-13T03:34:51.833Z,99.99
2018-01-13T03:35:52.249Z,99.99
2018-01-13T03:36:52.673Z,99.99
2018-01-13T03:37:53.086Z,99.99
2018-01-13T03:38:53.502Z,99.99
2018-01-13T03:39:53.925Z,99.99
2018-01-13T03:40:54.349Z,99.99
2018-01-13T03:41:54.758Z,99.99
2018-01-13T03:42:55.175Z,99.99
2018-01-13T03:43:55.594Z,99.99
2018-01-13T03:44:56.016Z,99.99
2018-01-13T03:45:56.434Z,99.99
2018-01-13T03:46:56.849Z,99.99
2018-01-13T03:47:57.272Z,99.99
2018-01-13T03:48:57.689Z,99.99
2018-01-13T03:49:58.109Z,99.99
2018-01-13T03:50:58.526Z,99.99
2018-01-13T03:51:58.943Z,99.99
2018-01-13T03:52:59.370Z,99.99
2018-01-13T03:53:59.785Z,99.99
2018-01-13T03:55:00.197Z,99.99
2018-01-13T03:56:00.617Z,99.99
2018-01-13T03:57:01.033Z,99.99
2018-01-13T03:58:01.452Z,99.99
2018-01-13T03:59:01.868Z,99.99
2018-01-13T04:00:02.295Z,99.99
2018-01-13T04:01:02.715Z,99.99
2018-01-13T04:02:03.142Z,99.99
2018-01-13T04:03:03.556Z,99.99
2018-01-13T04:04:03.977Z,99.99
2018-01-13T04:05:04.382Z,99.99
2018-01-13T04:06:04.808Z,99.99
2018-01-13T04:07:05.225Z,99.99
2018-01-13T04:08:05.639Z,99.99
2018-01-13T04:09:06.057Z,99.99
2018-01-13T04:10:06.476Z,99.99
2018-01-13T04:11:06.892Z,99.99
2018-01-13T04:12:07.309Z,99.99
2018-01-13T04:13:07.727Z,99.99
2018-01-13T04:14:08.146Z,99.99
2018-01-13T04:15:08.564Z,99.99
2018-01-13T04:16:08.981Z,99.99
2018-01-13T04:17:09.414Z,99.99
2018-01-13T04:18:09.821Z,99.99
2018-01-13T04:19:10.242Z,99.99
2018-01-13T04:20:10.661Z,99.99
2018-01-13T04:21:11.080Z,99.99
2018-01-13T04:22:11.494Z,99.99
2018-01-13T04:23:11.913Z,99.99
2018-01-13T04:24:12.327Z,99.99
2018-01-13T04:25:12.747Z,99.99
2018-01-13T04:26:13.165Z,99.99
2018-01-13T04:27:13.589Z,99.99
2018-01-13T04:28:14.010Z,99.99
2018-01-13T04:29:14.425Z,99.99
2018-01-13T04:30:14.847Z,99.99
2018-01-13T04:31:15.262Z,99.99
2018-01-13T04:32:15.677Z,99.99
2018-01-13T04:33:16.102Z,99.99
2018-01-13T04:34:16.515Z,99.99
2018-01-13T04:35:16.931Z,99.99
2018-01-13T04:36:17.352Z,99.99
2018-01-13T04:37:17.766Z,99.99
2018-01-13T04:38:18.183Z,99.99
2018-01-13T04:39:18.602Z,99.99
2018-01-13T04:40:19.024Z,99.99
2018-01-13T04:41:19.441Z,99.99
2018-01-13T04:42:19.862Z,99.99
2018-01-13T04:43:20.289Z,99.99
2018-01-13T04:44:20.696Z,99.99
2018-01-13T04:45:21.122Z,99.99
2018-01-13T04:46:21.532Z,99.99
2018-01-13T04:47:21.954Z,99.99
2018-01-13T04:48:22.370Z,99.99
2018-01-13T04:49:22.795Z,99.99
2018-01-13T04:50:23.210Z,99.99
2018-01-13T04:51:23.626Z,99.99
2018-01-13T04:52:24.062Z,99.99
2018-01-13T04:53:24.463Z,99.99
2018-01-13T04:54:24.891Z,99.99
2018-01-13T04:55:25.306Z,99.99
2018-01-13T04:56:25.720Z,99.99
2018-01-13T04:57:26.137Z,99.99
2018-01-13T04:58:26.554Z,99.99
2018-01-13T04:59:26.968Z,99.99
2018-01-13T05:00:27.396Z,99.99
2018-01-13T05:01:27.811Z,99.99
2018-01-13T05:02:28.238Z,99.99
2018-01-13T05:03:28.646Z,99.99
2018-01-13T05:04:29.061Z,99.99
2018-01-13T05:05:29.482Z,99.99
2018-01-13T05:06:29.900Z,99.99
2018-01-13T05:07:30.318Z,99.99
2018-01-13T05:08:30.742Z,99.99
2018-01-13T05:09:31.151Z,99.99
2018-01-13T05:10:31.572Z,99.99
2018-01-13T05:11:31.994Z,99.99
2018-01-13T05:12:32.409Z,99.99
2018-01-13T05:13:32.827Z,99.99
2018-01-13T05:14:33.252Z,99.99
2018-01-13T05:15:33.662Z,99.99
2018-01-13T05:16:34.084Z,99.99
2018-01-13T05:17:34.499Z,99.99
2018-01-13T05:18:34.916Z,99.99
2018-01-13T05:19:35.336Z,99.99
2018-01-13T05:20:35.754Z,99.99
2018-01-13T05:21:36.857Z,99.99
2018-01-13T05:22:36.599Z,99.99
2018-01-13T05:23:37.015Z,99.99
2018-01-13T05:24:37.433Z,99.99
2018-01-13T05:25:37.852Z,99.99
2018-01-13T05:26:38.274Z,99.99
2018-01-13T05:27:38.693Z,99.99
2018-01-13T05:28:39.101Z,99.99
2018-01-13T05:29:39.522Z,99.99
2018-01-13T05:30:39.941Z,99.99
2018-01-13T05:31:40.353Z,99.99
2018-01-13T05:32:40.780Z,99.99
2018-01-13T05:33:41.191Z,99.99
2018-01-13T05:34:41.611Z,99.99
2018-01-13T05:35:42.026Z,99.99
2018-01-13T05:36:42.448Z,99.99
2018-01-13T05:37:42.900Z,99.99
2018-01-13T05:38:43.281Z,99.99
2018-01-13T05:39:43.705Z,99.99
2018-01-13T05:40:44.117Z,99.99
2018-01-13T05:41:44.541Z,99.99
2018-01-13T05:42:44.967Z,99.99
2018-01-13T05:43:45.383Z,99.99
2018-01-13T05:44:45.795Z,99.99
2018-01-13T05:45:46.217Z,99.99
2018-01-13T05:46:46.626Z,99.99
2018-01-13T05:47:47.048Z,99.99
2018-01-13T05:48:47.464Z,99.99
2018-01-13T05:49:47.881Z,99.99
2018-01-13T05:50:48.300Z,99.99
2018-01-13T05:51:48.723Z,99.99
2018-01-13T05:52:49.141Z,99.99
2018-01-13T05:53:49.554Z,99.99
2018-01-13T05:54:49.974Z,99.99
2018-01-13T05:55:50.392Z,99.99
2018-01-13T05:56:50.813Z,99.99
2018-01-13T05:57:51.229Z,99.99
2018-01-13T05:58:51.645Z,99.99
2018-01-13T05:59:52.075Z,99.99
2018-01-13T06:00:52.496Z,99.99
2018-01-13T06:01:52.920Z,99.99
2018-01-13T06:02:53.323Z,99.99
2018-01-13T06:03:53.740Z,99.99
2018-01-13T06:04:54.159Z,99.99
2018-01-13T06:05:54.574Z,99.99
2018-01-13T06:06:54.991Z,99.99
2018-01-13T06:07:55.407Z,99.99
2018-01-13T06:08:55.826Z,99.99
2018-01-13T06:09:56.246Z,99.99
2018-01-13T06:10:56.664Z,99.99
2018-01-13T06:11:57.087Z,99.99
2018-01-13T06:12:57.513Z,99.99
2018-01-13T06:13:57.918Z,99.99
2018-01-13T06:14:58.336Z,99.99
2018-01-13T06:15:58.753Z,99.99
2018-01-13T06:16:59.173Z,99.99
2018-01-13T06:17:59.590Z,99.99
2018-01-13T06:19:00.012Z,99.99
2018-01-13T06:20:00.423Z,99.99
2018-01-13T06:21:00.842Z,99.99
2018-01-13T06:22:01.263Z,99.99
2018-01-13T06:23:01.690Z,99.99
2018-01-13T06:24:02.148Z,99.99
2018-01-13T06:25:02.526Z,99.99
2018-01-13T06:26:02.943Z,99.99
2018-01-13T06:27:03.356Z,99.99
2018-01-13T06:28:03.771Z,99.99
2018-01-13T06:29:04.188Z,99.99
2018-01-13T06:30:04.610Z,99.99
2018-01-13T06:31:05.023Z,99.99
2018-01-13T06:32:05.440Z,99.99
2018-01-13T06:33:05.861Z,99.99
2018-01-13T06:34:06.277Z,99.99
2018-01-13T06:35:06.707Z,99.99
2018-01-13T06:36:07.130Z,99.99
2018-01-13T06:37:07.543Z,99.99
2018-01-13T06:38:07.973Z,99.99
2018-01-13T06:39:08.376Z,99.99
2018-01-13T06:40:08.795Z,99.99
2018-01-13T06:41:09.208Z,99.99
2018-01-13T06:42:09.625Z,99.99
2018-01-13T06:43:10.044Z,99.99
2018-01-13T06:44:10.460Z,99.99
2018-01-13T06:45:10.882Z,99.99
2018-01-13T06:46:11.295Z,99.99
2018-01-13T06:47:11.720Z,99.99
2018-01-13T06:48:12.136Z,99.99
2018-01-13T06:49:12.553Z,99.99
2018-01-13T06:50:12.970Z,99.99
2018-01-13T06:51:13.389Z,99.99
2018-01-13T06:52:13.808Z,99.99
2018-01-13T06:53:14.225Z,99.99
2018-01-13T06:54:14.642Z,99.99
2018-01-13T06:55:15.070Z,99.99
2018-01-13T06:56:15.484Z,99.99
2018-01-13T06:57:15.904Z,99.99
2018-01-13T06:58:16.317Z,99.99
2018-01-13T06:59:16.735Z,99.99
2018-01-13T07:00:17.150Z,99.99
2018-01-13T07:01:17.570Z,99.99
2018-01-13T07:02:17.989Z,99.99
2018-01-13T07:03:18.405Z,99.99
2018-01-13T07:04:18.831Z,99.99
2018-01-13T07:05:19.246Z,99.99
2018-01-13T07:06:19.662Z,99.99
2018-01-13T07:07:20.077Z,99.99
2018-01-13T07:08:20.497Z,99.99
2018-01-13T07:09:20.967Z,99.99
2018-01-13T07:10:21.342Z,99.99
2018-01-13T07:11:21.753Z,99.99
2018-01-13T07:12:22.175Z,99.99
2018-01-13T07:13:22.588Z,99.99
2018-01-13T07:14:23.007Z,99.99
2018-01-13T07:15:23.482Z,99.99
2018-01-13T07:16:23.849Z,99.99
2018-01-13T07:17:24.264Z,99.99
2018-01-13T07:18:24.680Z,99.99
2018-01-13T07:19:25.099Z,99.99
2018-01-13T07:20:25.526Z,99.99
2018-01-13T07:21:25.946Z,99.99
2018-01-13T07:22:26.353Z,99.99
2018-01-13T07:23:26.804Z,99.99
2018-01-13T07:24:27.186Z,99.99
2018-01-13T07:25:27.624Z,99.99
2018-01-13T07:26:28.025Z,99.99
2018-01-13T07:27:28.458Z,99.99
2018-01-13T07:28:28.862Z,99.99
2018-01-13T07:29:29.301Z,99.99
2018-01-13T07:30:29.705Z,99.99
2018-01-13T07:31:30.119Z,99.99
2018-01-13T07:32:30.535Z,99.99
2018-01-13T07:33:30.955Z,99.99
2018-01-13T07:34:31.372Z,99.99
2018-01-13T07:35:31.790Z,99.99
2018-01-13T07:36:32.205Z,99.99
2018-01-13T07:37:32.622Z,99.99
2018-01-13T07:38:33.038Z,99.99
2018-01-13T07:39:33.456Z,99.99
2018-01-13T07:40:33.874Z,99.99
2018-01-13T07:41:34.291Z,99.99
2018-01-13T07:42:34.710Z,99.99
2018-01-13T07:43:35.127Z,99.99
2018-01-13T07:44:35.549Z,99.99
2018-01-13T07:45:35.967Z,99.99
2018-01-13T07:46:36.383Z,99.99
2018-01-13T07:47:36.802Z,99.99
2018-01-13T07:48:37.216Z,99.99
2018-01-13T07:49:37.638Z,99.99
2018-01-13T07:50:38.054Z,99.99
2018-01-13T07:51:38.473Z,99.99
2018-01-13T07:52:38.928Z,99.99
2018-01-13T07:53:39.314Z,99.99
2018-01-13T07:54:39.726Z,99.99
2018-01-13T07:55:40.146Z,99.99
2018-01-13T07:56:40.563Z,99.99
2018-01-13T07:57:40.981Z,99.99
2018-01-13T07:58:41.398Z,99.99
2018-01-13T07:59:41.816Z,99.99
2018-01-13T08:00:42.239Z,99.99
2018-01-13T08:01:42.652Z,99.99
2018-01-13T08:02:43.070Z,99.99
2018-01-13T08:03:43.487Z,99.99
2018-01-13T08:04:43.906Z,99.99
2018-01-13T08:05:44.346Z,99.99
2018-01-13T08:08:17.884Z,99.99
2018-01-13T08:09:18.260Z,99.99
2018-01-13T08:11:13.836Z,99.99
2018-01-13T08:12:14.230Z,99.99
2018-01-13T08:14:08.799Z,99.99
2018-01-13T08:15:09.225Z,99.99
2018-01-13T08:17:03.814Z,99.99
2018-01-13T08:18:04.228Z,99.99
2018-01-13T08:19:04.624Z,99.99
2018-01-13T08:20:05.061Z,99.99
2018-01-13T08:21:05.491Z,99.99
2018-01-13T08:22:05.896Z,99.99
2018-01-13T08:23:06.311Z,99.99
2018-01-13T08:24:06.727Z,99.99
2018-01-13T08:25:07.135Z,99.99
2018-01-13T08:26:07.553Z,99.99
2018-01-13T08:27:07.972Z,99.99
2018-01-13T08:28:08.438Z,99.99
2018-01-13T08:29:08.804Z,99.99
2018-01-13T08:30:09.221Z,99.99
2018-01-13T08:31:09.636Z,99.99
2018-01-13T08:32:10.056Z,99.99
2018-01-13T08:33:10.473Z,99.99
2018-01-13T08:35:51.962Z,99.99
2018-01-13T08:36:52.405Z,99.99
2018-01-13T08:38:49.225Z,99.99
2018-01-13T08:46:37.402Z,99.99
2018-01-13T08:47:37.718Z,99.99
2018-01-13T08:48:38.121Z,99.99
2018-01-13T08:49:38.540Z,99.99
2018-01-13T08:50:38.972Z,99.99
2018-01-13T08:51:39.370Z,99.99
2018-01-13T08:52:39.778Z,99.99
2018-01-13T08:53:40.197Z,99.99
2018-01-13T08:54:40.621Z,99.99
2018-01-13T08:55:41.037Z,99.99
2018-01-13T08:56:41.448Z,99.99
2018-01-13T08:57:41.864Z,99.99
2018-01-13T08:58:42.283Z,99.99
2018-01-13T08:59:42.704Z,99.99
2018-01-13T09:00:43.131Z,99.99
2018-01-13T09:01:43.537Z,99.99
2018-01-13T09:02:43.955Z,99.99
2018-01-13T09:03:44.409Z,99.99
2018-01-13T09:06:28.298Z,99.99
2018-01-13T09:07:28.699Z,99.99
2018-01-13T09:09:23.289Z,99.99
2018-01-13T09:10:23.694Z,99.99
2018-01-13T09:12:18.291Z,99.99
2018-01-13T09:13:18.692Z,99.99
2018-01-13T09:15:14.249Z,99.99
2018-01-13T09:16:14.671Z,99.99
2018-01-13T09:18:09.276Z,99.99
2018-01-13T09:19:09.676Z,99.99
2018-01-13T09:21:04.243Z,99.99
2018-01-13T09:22:04.657Z,99.99
2018-01-13T09:23:59.252Z,99.99
2018-01-13T09:24:59.659Z,99.99
2018-01-13T09:26:54.232Z,99.99
2018-01-13T09:27:54.654Z,99.99
2018-01-13T09:29:49.241Z,99.99
2018-01-13T09:30:49.667Z,99.99
2018-01-13T09:32:44.230Z,99.99
2018-01-13T09:33:44.693Z,99.99
2018-01-13T09:35:39.238Z,99.99
2018-01-13T09:36:39.627Z,99.99
2018-01-13T09:38:34.216Z,99.99
2018-01-13T09:39:34.620Z,99.99
2018-01-13T09:41:29.198Z,99.99
2018-01-13T09:42:29.617Z,99.99
2018-01-13T09:44:24.237Z,99.99
2018-01-13T09:45:24.642Z,99.99
2018-01-13T09:46:25.046Z,99.99
2018-01-13T09:47:25.441Z,99.99
2018-01-13T09:48:25.856Z,99.99
2018-01-13T09:49:26.283Z,99.99
2018-01-13T09:50:26.698Z,99.99
2018-01-13T09:51:27.113Z,99.99
2018-01-13T09:52:27.540Z,99.99
2018-01-13T09:53:27.956Z,99.99
2018-01-13T09:54:28.375Z,99.99
2018-01-13T09:55:28.789Z,99.99
2018-01-13T09:56:29.219Z,99.99
2018-01-13T09:57:29.622Z,99.99
2018-01-13T09:58:30.044Z,99.99
2018-01-13T09:59:30.469Z,99.99
2018-01-13T10:00:30.883Z,99.99
2018-01-13T10:01:31.304Z,99.99
2018-01-13T10:02:31.718Z,99.99
2018-01-13T10:03:32.135Z,99.99
2018-01-13T10:04:32.555Z,99.99
2018-01-13T10:05:32.972Z,99.99
2018-01-13T10:06:33.394Z,99.99
2018-01-13T10:07:33.814Z,99.99
2018-01-13T10:08:34.228Z,99.99
2018-01-13T10:09:34.643Z,99.99
2018-01-13T10:10:35.060Z,99.99
2018-01-13T10:11:35.482Z,99.99
2018-01-13T10:12:35.898Z,99.99
2018-01-13T10:13:36.329Z,99.99
2018-01-13T10:14:36.739Z,99.99
2018-01-13T10:15:37.154Z,99.99
2018-01-13T10:16:37.576Z,99.99
2018-01-13T10:17:38.009Z,99.99
2018-01-13T10:18:38.425Z,99.99
2018-01-13T10:19:38.879Z,99.99
2018-01-13T10:20:39.260Z,99.99
2018-01-13T10:21:39.681Z,99.99
2018-01-13T10:22:40.097Z,99.99
2018-01-13T10:23:40.515Z,99.99
2018-01-13T10:24:40.936Z,99.99
2018-01-13T10:25:41.362Z,99.99
2018-01-13T10:26:41.765Z,99.99
2018-01-13T10:27:42.188Z,99.99
2018-01-13T10:28:42.626Z,99.99
2018-01-13T10:29:43.023Z,99.99
2018-01-13T10:30:43.442Z,99.99
2018-01-13T10:31:43.878Z,99.99
2018-01-13T10:32:44.288Z,99.99
2018-01-13T10:33:44.710Z,99.99
2018-01-13T10:34:45.129Z,99.99
2018-01-13T10:35:45.541Z,99.99
2018-01-13T10:36:45.970Z,99.99
2018-01-13T10:37:46.385Z,99.99
2018-01-13T10:38:46.793Z,99.99
2018-01-13T10:39:47.217Z,99.99
2018-01-13T10:40:47.636Z,99.99
2018-01-13T10:41:48.063Z,99.99
2018-01-13T10:42:48.484Z,99.99
2018-01-13T10:43:48.904Z,99.99
2018-01-13T10:44:49.336Z,99.99
2018-01-13T10:45:49.736Z,99.99
2018-01-13T10:46:50.149Z,99.99
2018-01-13T10:47:50.567Z,99.99
2018-01-13T10:48:50.983Z,99.99
2018-01-13T10:49:51.403Z,99.99
2018-01-13T10:50:51.837Z,99.99
2018-01-13T10:51:52.233Z,99.99
2018-01-13T10:52:52.652Z,99.99
2018-01-13T10:53:53.092Z,99.99
2018-01-13T10:54:53.494Z,99.99
2018-01-13T10:55:53.910Z,99.99
2018-01-13T10:56:54.327Z,99.99
2018-01-13T10:57:54.756Z,99.99
2018-01-13T10:58:55.163Z,99.99
2018-01-13T10:59:55.583Z,99.99
2018-01-13T11:00:56.005Z,99.99
2018-01-13T11:01:56.503Z,99.99
2018-01-13T11:02:56.832Z,99.99
2018-01-13T11:03:57.264Z,99.99
2018-01-13T11:04:57.679Z,99.99
2018-01-13T11:05:58.103Z,99.99
2018-01-13T11:06:58.523Z,99.99
2018-01-13T11:07:58.939Z,99.99
2018-01-13T11:08:59.351Z,99.99
2018-01-13T11:09:59.778Z,99.99
2018-01-13T11:11:00.199Z,99.99
2018-01-13T11:12:00.640Z,99.99
2018-01-13T11:13:01.041Z,99.99
2018-01-13T11:14:01.455Z,99.99
2018-01-13T11:15:01.872Z,99.99
2018-01-13T11:16:02.266Z,99.99
2018-01-13T11:17:56.875Z,99.99
2018-01-13T11:18:57.272Z,99.99
2018-01-13T11:20:52.830Z,99.99
2018-01-13T11:21:53.248Z,99.99
2018-01-13T11:23:47.827Z,99.99
2018-01-13T11:24:48.268Z,99.99
2018-01-13T11:26:43.858Z,99.99
2018-01-13T11:27:44.230Z,99.99
2018-01-13T11:29:38.859Z,99.99
2018-01-13T11:30:39.232Z,99.99
2018-01-13T11:32:33.824Z,99.99
2018-01-13T11:33:34.249Z,99.99
2018-01-13T11:35:28.857Z,99.99
2018-01-13T11:36:29.267Z,99.99
2018-01-13T11:38:25.039Z,99.99
2018-01-13T11:39:25.217Z,99.99
2018-01-13T11:41:19.882Z,99.99
2018-01-13T11:42:20.290Z,99.99
2018-01-13T11:44:14.837Z,99.99
2018-01-13T11:45:15.256Z,99.99
2018-01-13T11:47:09.881Z,99.99
2018-01-13T11:48:10.255Z,99.99
2018-01-13T11:50:04.890Z,99.99
2018-01-13T11:51:05.274Z,99.99
2018-01-13T11:53:00.835Z,99.99
2018-01-13T11:54:01.256Z,99.99
2018-01-13T11:55:55.872Z,99.99
2018-01-13T11:56:56.278Z,99.99
2018-01-13T11:58:50.807Z,99.99
2018-01-13T11:59:51.237Z,99.99
2018-01-13T12:01:45.846Z,99.99
2018-01-13T12:02:46.226Z,99.99
2018-01-13T12:04:40.804Z,99.99
2018-01-13T12:05:41.265Z,99.99
2018-01-13T12:07:35.842Z,99.99
2018-01-13T12:08:36.202Z,99.99
2018-01-13T12:10:30.809Z,99.99
2018-01-13T12:11:31.202Z,99.99
2018-01-13T12:13:26.763Z,99.99
2018-01-13T12:14:27.163Z,99.99
2018-01-13T12:16:21.800Z,99.99
2018-01-13T12:17:22.170Z,99.99
2018-01-13T12:19:17.983Z,99.99
2018-01-13T12:20:18.147Z,99.99
2018-01-13T12:22:12.771Z,99.99
2018-01-13T12:23:13.131Z,99.99
2018-01-13T12:25:07.712Z,99.99
2018-01-13T12:26:08.134Z,99.99
2018-01-13T12:28:02.737Z,99.99
2018-01-13T12:29:03.135Z,99.99
2018-01-13T12:30:57.687Z,99.99
2018-01-13T12:31:58.127Z,99.99
2018-01-13T12:33:52.708Z,99.99
2018-01-13T12:34:53.098Z,99.99
2018-01-13T12:36:48.705Z,99.99
2018-01-13T12:37:49.066Z,99.99
2018-01-13T12:39:43.630Z,99.99
2018-01-13T12:40:44.062Z,99.99
2018-01-13T12:42:38.674Z,99.99
2018-01-13T12:43:39.047Z,99.99
2018-01-13T12:45:33.631Z,99.99
2018-01-13T12:46:34.038Z,99.99
2018-01-13T12:48:28.631Z,99.99
2018-01-13T12:49:29.022Z,99.99
2018-01-13T12:51:23.591Z,99.99
2018-01-13T12:52:24.018Z,99.99
2018-01-13T12:54:18.628Z,99.99
2018-01-13T12:55:19.017Z,99.99
2018-01-13T12:57:13.583Z,99.99
2018-01-13T12:58:13.999Z,99.99
2018-01-13T13:00:08.576Z,99.99
2018-01-13T13:01:08.975Z,99.99
2018-01-13T13:03:03.555Z,99.99
2018-01-13T13:04:03.967Z,99.99
2018-01-13T13:05:04.384Z,99.99
2018-01-13T13:06:04.808Z,99.99
2018-01-13T13:07:05.226Z,99.99
2018-01-13T13:08:05.642Z,99.99
2018-01-13T13:09:06.066Z,99.99
2018-01-13T13:10:06.476Z,99.99
2018-01-13T13:11:06.922Z,99.99
2018-01-13T13:12:07.300Z,99.99
2018-01-13T13:13:07.740Z,99.99
2018-01-13T13:14:08.170Z,99.99
2018-01-13T13:15:08.581Z,99.99
2018-01-13T13:16:09.004Z,99.99
2018-01-13T13:17:09.408Z,99.99
2018-01-13T13:18:09.833Z,99.99
2018-01-13T13:19:10.256Z,99.99
2018-01-13T13:20:10.665Z,99.99
2018-01-13T13:21:11.072Z,99.99
2018-01-13T13:22:11.481Z,99.99
2018-01-13T13:23:11.911Z,99.99
2018-01-13T13:24:12.351Z,99.99
2018-01-13T13:25:12.778Z,99.99
2018-01-13T13:26:13.184Z,99.99
2018-01-13T13:27:13.586Z,99.99
2018-01-13T13:28:14.025Z,99.99
2018-01-13T13:29:14.425Z,99.99
2018-01-13T13:30:14.860Z,99.99
2018-01-13T13:31:15.279Z,99.99
2018-01-13T13:32:15.692Z,99.99
2018-01-13T13:33:16.095Z,99.99
2018-01-13T13:34:16.508Z,99.99
2018-01-13T13:35:16.924Z,99.99
2018-01-13T13:36:17.340Z,99.99
2018-01-13T13:37:17.774Z,99.99
2018-01-13T13:38:18.198Z,99.99
2018-01-13T13:39:18.608Z,99.99
2018-01-13T13:40:19.028Z,99.99
2018-01-13T13:41:19.448Z,99.99
2018-01-13T13:42:19.857Z,99.99
2018-01-13T13:43:20.275Z,99.99
2018-01-13T13:44:20.690Z,99.99
2018-01-13T13:45:21.111Z,99.99
2018-01-13T13:46:21.526Z,99.99
2018-01-13T13:47:21.946Z,99.99
2018-01-13T13:48:22.364Z,99.99
2018-01-13T13:49:22.781Z,99.80
2018-01-13T13:50:23.205Z,99.99
2018-01-13T13:51:23.623Z,99.99
2018-01-13T13:52:24.038Z,99.99
2018-01-13T13:53:24.464Z,99.90
2018-01-13T13:54:24.876Z,99.99
2018-01-13T13:55:25.293Z,99.99
2018-01-13T13:56:25.711Z,99.99
2018-01-13T13:57:26.144Z,99.99
2018-01-13T13:58:26.543Z,99.71